Time;durP1;ratioP1;P1;durP2;ratioP2;P2;SDS_P1;SDS_P2;PMS_P1;PMS_P2;Temp;Humidity;BMP_temperature;BMP_pressure;BME280_temperature;BME280_humidity;BME280_pressure;Samples;Min_cycle;Max_cycle;Signal;HPM_P1;HPM_P2
2023/11/11 00:01:32;;;;;;;22.02;14.48;;;;;;;;;;5017885;28;20193;-68
2023/11/11 00:03:58;;;;;;;24.40;15.23;;;;;;;;;;5023680;28;20692;-68
2023/11/11 00:06:24;;;;;;;24.17;14.80;;;;;;;;;;5030101;28;20197;-68
2023/11/11 00:08:49;;;;;;;23.13;15.40;;;;;;;;;;5028236;28;20676;-68
2023/11/11 00:11:15;;;;;;;27.45;15.15;;;;;;;;;;5026524;28;20227;-68
2023/11/11 00:13:44;;;;;;;22.70;15.70;;;;;;;;;;5029508;28;20264;-69
2023/11/11 00:16:09;;;;;;;24.48;15.70;;;;;;;;;;5025793;28;20234;-70
2023/11/11 00:18:36;;;;;;;27.52;17.05;;;;;;;;;;5026072;28;20348;-71
2023/11/11 00:21:03;;;;;;;26.10;16.10;;;;;;;;;;5027761;28;20197;-71
2023/11/11 00:23:30;;;;;;;24.35;16.73;;;;;;;;;;5028359;28;20193;-70
2023/11/11 00:25:56;;;;;;;20.83;15.02;;;;;;;;;;5029169;28;20190;-70
2023/11/11 00:28:22;;;;;;;23.92;16.60;;;;;;;;;;5028357;28;20214;-69
2023/11/11 00:30:47;;;;;;;24.40;15.93;;;;;;;;;;5028740;28;20644;-70
2023/11/11 00:33:13;;;;;;;25.63;16.52;;;;;;;;;;5020679;28;20222;-70
2023/11/11 00:35:38;;;;;;;24.23;15.30;;;;;;;;;;5019473;28;20182;-71
2023/11/11 00:38:04;;;;;;;24.25;15.65;;;;;;;;;;5030948;28;20218;-70
2023/11/11 00:40:29;;;;;;;26.13;16.13;;;;;;;;;;5030026;28;20224;-70
2023/11/11 00:42:55;;;;;;;24.20;16.00;;;;;;;;;;5030674;28;20231;-69
2023/11/11 00:45:22;;;;;;;26.05;16.40;;;;;;;;;;5022713;28;20343;-69
2023/11/11 00:47:48;;;;;;;28.48;16.48;;;;;;;;;;5019870;28;20217;-70
2023/11/11 00:50:13;;;;;;;25.88;16.25;;;;;;;;;;5021672;28;20242;-70
2023/11/11 00:52:39;;;;;;;25.05;16.25;;;;;;;;;;5012197;28;20190;-69
2023/11/11 00:55:07;;;;;;;25.33;15.80;;;;;;;;;;5017907;28;20343;-69
2023/11/11 00:57:32;;;;;;;25.25;15.48;;;;;;;;;;5023863;28;20195;-70
2023/11/11 00:59:57;;;;;;;25.38;15.98;;;;;;;;;;5028988;28;20271;-68
2023/11/11 01:02:23;;;;;;;23.50;14.85;;;;;;;;;;5025608;28;20585;-69
2023/11/11 01:04:49;;;;;;;24.98;16.20;;;;;;;;;;5026812;28;20183;-69
2023/11/11 01:07:14;;;;;;;22.67;15.10;;;;;;;;;;5027879;28;20197;-69
2023/11/11 01:09:41;;;;;;;22.13;14.35;;;;;;;;;;5025161;28;20245;-69
2023/11/11 01:12:07;;;;;;;21.50;14.40;;;;;;;;;;5022759;28;20183;-68
2023/11/11 01:14:34;;;;;;;26.17;15.47;;;;;;;;;;5021421;28;20210;-69
2023/11/11 01:17:03;;;;;;;24.92;15.63;;;;;;;;;;5022730;28;20230;-69
2023/11/11 01:19:28;;;;;;;25.40;14.43;;;;;;;;;;5024039;28;20203;-68
2023/11/11 01:21:54;;;;;;;21.42;14.18;;;;;;;;;;5022690;28;20213;-68
2023/11/11 01:24:20;;;;;;;24.83;15.52;;;;;;;;;;5018774;28;20842;-68
2023/11/11 01:26:45;;;;;;;21.23;13.95;;;;;;;;;;5043657;28;20182;-68
2023/11/11 01:29:11;;;;;;;20.23;13.75;;;;;;;;;;5028984;28;20193;-68
2023/11/11 01:31:37;;;;;;;28.40;14.40;;;;;;;;;;5023634;28;20675;-68
2023/11/11 01:34:04;;;;;;;20.85;13.27;;;;;;;;;;5023555;28;20210;-69
2023/11/11 01:36:29;;;;;;;23.98;13.63;;;;;;;;;;5027661;28;20233;-69
2023/11/11 01:38:55;;;;;;;21.33;13.20;;;;;;;;;;5027146;28;20614;-68
2023/11/11 01:41:20;;;;;;;19.63;13.70;;;;;;;;;;5041395;28;20680;-69
2023/11/11 01:43:45;;;;;;;22.48;12.48;;;;;;;;;;5020273;28;20202;-68
2023/11/11 01:46:11;;;;;;;25.85;12.98;;;;;;;;;;5028178;28;20194;-68
2023/11/11 01:48:37;;;;;;;19.13;12.55;;;;;;;;;;5018773;28;20488;-68
2023/11/11 01:51:03;;;;;;;17.20;12.00;;;;;;;;;;5021047;28;20280;-69
2023/11/11 01:53:31;;;;;;;23.70;12.57;;;;;;;;;;5019798;28;20265;-68
2023/11/11 01:55:57;;;;;;;22.30;11.63;;;;;;;;;;5030514;28;20202;-68
2023/11/11 01:58:23;;;;;;;20.83;11.85;;;;;;;;;;5024881;28;20217;-68
2023/11/11 02:00:51;;;;;;;20.90;12.27;;;;;;;;;;5024006;28;20191;-69
2023/11/11 02:03:17;;;;;;;16.73;11.30;;;;;;;;;;5014110;28;20260;-68
2023/11/11 02:05:42;;;;;;;18.00;11.38;;;;;;;;;;5023449;28;20771;-68
2023/11/11 02:08:09;;;;;;;19.02;11.05;;;;;;;;;;5029917;28;20317;-68
2023/11/11 02:10:35;;;;;;;17.10;11.18;;;;;;;;;;5025424;28;20297;-67
2023/11/11 02:13:02;;;;;;;21.33;11.05;;;;;;;;;;5033845;28;20535;-68
2023/11/11 02:15:27;;;;;;;25.75;12.20;;;;;;;;;;5029076;28;20202;-68
2023/11/11 02:17:53;;;;;;;20.17;11.52;;;;;;;;;;5027845;28;20540;-68
2023/11/11 02:20:19;;;;;;;16.58;11.30;;;;;;;;;;5020928;28;20628;-68
2023/11/11 02:22:44;;;;;;;16.45;10.57;;;;;;;;;;5027835;28;20197;-67
2023/11/11 02:25:10;;;;;;;21.27;10.80;;;;;;;;;;5028491;28;20374;-69
2023/11/11 02:27:35;;;;;;;21.35;10.93;;;;;;;;;;5037550;28;20603;-68
2023/11/11 02:30:03;;;;;;;18.07;10.60;;;;;;;;;;5017414;28;20280;-68
2023/11/11 02:32:32;;;;;;;20.88;10.07;;;;;;;;;;5028034;28;20196;-68
2023/11/11 02:34:58;;;;;;;16.27;9.13;;;;;;;;;;5028373;28;20190;-68
2023/11/11 02:37:23;;;;;;;17.08;10.50;;;;;;;;;;5028498;28;20288;-68
2023/11/11 02:39:49;;;;;;;20.20;10.48;;;;;;;;;;5016717;28;20670;-67
2023/11/11 02:42:14;;;;;;;19.42;9.48;;;;;;;;;;5027989;28;20189;-68
2023/11/11 02:44:40;;;;;;;21.13;9.80;;;;;;;;;;5028461;28;20650;-68
2023/11/11 02:47:05;;;;;;;16.08;9.55;;;;;;;;;;5027506;28;20182;-68
2023/11/11 02:49:30;;;;;;;16.42;8.98;;;;;;;;;;5027621;28;20474;-68
2023/11/11 02:51:56;;;;;;;20.00;8.77;;;;;;;;;;5024082;28;20238;-67
2023/11/11 02:54:21;;;;;;;18.67;8.87;;;;;;;;;;5021673;28;20233;-68
2023/11/11 02:56:46;;;;;;;15.70;8.27;;;;;;;;;;5020333;28;20272;-68
2023/11/11 02:59:12;;;;;;;16.03;8.57;;;;;;;;;;5016062;28;20265;-68
2023/11/11 03:01:37;;;;;;;15.67;8.83;;;;;;;;;;5023644;28;20186;-68
2023/11/11 03:04:03;;;;;;;15.77;9.13;;;;;;;;;;5027399;28;20675;-67
2023/11/11 03:06:29;;;;;;;18.20;8.87;;;;;;;;;;5027982;28;20178;-68
2023/11/11 03:08:55;;;;;;;15.30;8.63;;;;;;;;;;5022328;28;20852;-67
2023/11/11 03:11:21;;;;;;;17.80;8.53;;;;;;;;;;5038211;28;20257;-67
2023/11/11 03:13:48;;;;;;;15.20;7.70;;;;;;;;;;5030198;28;20275;-68
2023/11/11 03:16:14;;;;;;;13.00;7.30;;;;;;;;;;5025165;28;20217;-68
2023/11/11 03:18:40;;;;;;;12.57;8.20;;;;;;;;;;5027932;28;20262;-67
2023/11/11 03:21:05;;;;;;;15.10;7.50;;;;;;;;;;5026711;28;20696;-68
2023/11/11 03:23:31;;;;;;;14.60;7.93;;;;;;;;;;5021436;28;20602;-68
2023/11/11 03:25:56;;;;;;;13.03;7.53;;;;;;;;;;5021442;28;20672;-68
2023/11/11 03:28:22;;;;;;;13.43;7.57;;;;;;;;;;5022012;28;20221;-68
2023/11/11 03:30:48;;;;;;;10.48;7.25;;;;;;;;;;5027237;28;20276;-68
2023/11/11 03:33:13;;;;;;;14.35;7.20;;;;;;;;;;5019236;28;20260;-67
2023/11/11 03:35:39;;;;;;;15.37;7.83;;;;;;;;;;5021118;28;20240;-67
2023/11/11 03:38:09;;;;;;;12.45;6.70;;;;;;;;;;5028983;28;20487;-67
2023/11/11 03:40:35;;;;;;;16.50;7.90;;;;;;;;;;5027174;28;20186;-68
2023/11/11 03:43:01;;;;;;;14.83;7.33;;;;;;;;;;5025915;28;20194;-67
2023/11/11 03:45:26;;;;;;;19.73;7.47;;;;;;;;;;5035119;28;20530;-67
2023/11/11 03:47:52;;;;;;;14.67;7.80;;;;;;;;;;5025915;28;20522;-68
2023/11/11 03:50:18;;;;;;;12.97;7.00;;;;;;;;;;5017818;28;20463;-68
2023/11/11 03:52:43;;;;;;;16.13;6.77;;;;;;;;;;5016287;28;20215;-67
2023/11/11 03:55:09;;;;;;;13.70;7.10;;;;;;;;;;5025955;28;20189;-67
2023/11/11 03:57:35;;;;;;;17.30;7.07;;;;;;;;;;5030743;28;20266;-68
2023/11/11 04:00:16;;;;;;;15.10;6.47;;;;;;;;;;5025809;28;20194;-67
2023/11/11 04:02:41;;;;;;;14.13;6.70;;;;;;;;;;5028159;28;20185;-67
2023/11/11 04:05:10;;;;;;;14.17;6.37;;;;;;;;;;5031901;28;20248;-67
2023/11/11 04:07:36;;;;;;;15.40;5.80;;;;;;;;;;5030669;28;20193;-69
2023/11/11 04:10:01;;;;;;;12.37;5.83;;;;;;;;;;5029288;28;20642;-68
2023/11/11 04:12:27;;;;;;;8.53;5.60;;;;;;;;;;5027551;28;20183;-68
2023/11/11 04:14:52;;;;;;;10.97;5.90;;;;;;;;;;5027762;28;20721;-68
2023/11/11 04:17:18;;;;;;;11.77;6.03;;;;;;;;;;5030914;28;20250;-67
2023/11/11 04:19:46;;;;;;;13.27;5.73;;;;;;;;;;5045502;28;20540;-68
2023/11/11 04:22:12;;;;;;;10.43;5.60;;;;;;;;;;5028624;28;20186;-68
2023/11/11 04:24:37;;;;;;;11.23;5.17;;;;;;;;;;5031554;28;20193;-67
2023/11/11 04:27:03;;;;;;;12.70;5.30;;;;;;;;;;5031335;28;20551;-67
2023/11/11 04:29:30;;;;;;;14.50;5.60;;;;;;;;;;5029815;28;20193;-69
2023/11/11 04:31:56;;;;;;;16.43;5.63;;;;;;;;;;5030909;28;20193;-68
2023/11/11 04:34:21;;;;;;;10.03;5.23;;;;;;;;;;5026626;28;20244;-68
2023/11/11 04:36:47;;;;;;;14.90;5.67;;;;;;;;;;5042604;28;20202;-68
2023/11/11 04:39:14;;;;;;;14.00;6.23;;;;;;;;;;5030608;28;20273;-68
2023/11/11 04:41:41;;;;;;;11.37;5.43;;;;;;;;;;5024816;28;20293;-68
2023/11/11 04:44:08;;;;;;;12.90;5.80;;;;;;;;;;5033358;28;20186;-68
2023/11/11 04:46:33;;;;;;;15.33;6.13;;;;;;;;;;5030709;28;20200;-68
2023/11/11 04:48:58;;;;;;;10.73;5.27;;;;;;;;;;5029815;28;20205;-67
2023/11/11 04:51:24;;;;;;;11.20;6.17;;;;;;;;;;5026045;28;20248;-68
2023/11/11 04:53:50;;;;;;;15.20;6.20;;;;;;;;;;5015348;28;20191;-68
2023/11/11 04:56:15;;;;;;;10.90;5.10;;;;;;;;;;5040684;28;20618;-68
2023/11/11 04:58:40;;;;;;;13.17;5.30;;;;;;;;;;5029377;28;20182;-68
2023/11/11 05:01:06;;;;;;;13.37;5.50;;;;;;;;;;5025223;28;20209;-67
2023/11/11 05:03:32;;;;;;;11.73;5.37;;;;;;;;;;5021290;28;20187;-67
2023/11/11 05:05:57;;;;;;;9.53;4.33;;;;;;;;;;5013519;28;20657;-68
2023/11/11 05:08:23;;;;;;;10.93;4.33;;;;;;;;;;5028027;28;20182;-67
2023/11/11 05:10:48;;;;;;;10.30;3.63;;;;;;;;;;5022193;28;20214;-68
2023/11/11 05:13:19;;;;;;;7.10;3.30;;;;;;;;;;5020883;28;20198;-67
2023/11/11 05:15:59;;;;;;;10.07;3.87;;;;;;;;;;5031835;28;20205;-68
2023/11/11 05:18:27;;;;;;;6.43;3.10;;;;;;;;;;5027288;28;20490;-68
2023/11/11 05:20:52;;;;;;;5.77;3.03;;;;;;;;;;5024754;28;20357;-68
2023/11/11 05:23:18;;;;;;;8.37;3.33;;;;;;;;;;5017749;28;20194;-69
2023/11/11 05:25:43;;;;;;;5.90;3.37;;;;;;;;;;5018317;28;20195;-67
2023/11/11 05:28:09;;;;;;;5.70;3.00;;;;;;;;;;5020968;28;20247;-68
2023/11/11 05:30:34;;;;;;;8.30;2.90;;;;;;;;;;5015895;28;20261;-69
2023/11/11 05:33:00;;;;;;;7.23;3.40;;;;;;;;;;5027349;28;20208;-68
2023/11/11 05:35:25;;;;;;;4.70;2.37;;;;;;;;;;5028838;28;20186;-68
2023/11/11 05:37:50;;;;;;;6.23;2.50;;;;;;;;;;5028924;28;20218;-68
2023/11/11 05:40:18;;;;;;;8.57;2.30;;;;;;;;;;5020810;28;20691;-68
2023/11/11 05:42:46;;;;;;;6.90;2.80;;;;;;;;;;5020562;28;20202;-68
2023/11/11 05:45:13;;;;;;;9.37;2.40;;;;;;;;;;5031525;28;20185;-68
2023/11/11 05:47:38;;;;;;;4.97;2.33;;;;;;;;;;5033125;28;20297;-68
2023/11/11 05:50:04;;;;;;;7.82;2.75;;;;;;;;;;5026204;28;20295;-68
2023/11/11 05:52:30;;;;;;;7.70;2.70;;;;;;;;;;5019705;28;20202;-68
2023/11/11 05:54:55;;;;;;;6.47;3.23;;;;;;;;;;5023101;28;20197;-68
2023/11/11 05:57:21;;;;;;;4.23;2.80;;;;;;;;;;5026572;28;20237;-67
2023/11/11 05:59:46;;;;;;;8.23;3.13;;;;;;;;;;5015227;28;20720;-68
2023/11/11 06:02:13;;;;;;;10.13;5.07;;;;;;;;;;5019260;28;20646;-68
2023/11/11 06:04:39;;;;;;;9.37;2.93;;;;;;;;;;5023460;28;20193;-68
2023/11/11 06:07:05;;;;;;;7.30;2.97;;;;;;;;;;5025531;28;20693;-68
2023/11/11 06:09:30;;;;;;;6.10;3.43;;;;;;;;;;5015472;28;20191;-68
2023/11/11 06:11:56;;;;;;;6.03;3.07;;;;;;;;;;5023591;28;20194;-68
2023/11/11 06:14:21;;;;;;;4.73;3.33;;;;;;;;;;5033812;28;20188;-68
2023/11/11 06:16:46;;;;;;;6.50;3.17;;;;;;;;;;5028727;28;20538;-68
2023/11/11 06:19:13;;;;;;;6.50;3.00;;;;;;;;;;5027020;28;20224;-68
2023/11/11 06:21:38;;;;;;;10.80;3.23;;;;;;;;;;5025531;28;20202;-68
2023/11/11 06:24:04;;;;;;;10.37;3.00;;;;;;;;;;5020131;28;20186;-69
2023/11/11 06:26:30;;;;;;;7.43;2.93;;;;;;;;;;5018912;28;20191;-69
2023/11/11 06:28:56;;;;;;;9.37;2.90;;;;;;;;;;5022684;28;20269;-68
2023/11/11 06:31:26;;;;;;;4.50;2.63;;;;;;;;;;5024092;28;20320;-68
2023/11/11 06:33:51;;;;;;;9.43;2.77;;;;;;;;;;5013112;28;20194;-69
2023/11/11 06:36:17;;;;;;;9.10;2.40;;;;;;;;;;5018264;28;20198;-67
2023/11/11 06:38:43;;;;;;;6.03;2.43;;;;;;;;;;5021666;28;20307;-69
2023/11/11 06:41:09;;;;;;;5.43;2.00;;;;;;;;;;5022153;28;20186;-68
2023/11/11 06:43:34;;;;;;;5.87;1.80;;;;;;;;;;5024749;28;20608;-69
2023/11/11 06:46:00;;;;;;;7.13;2.10;;;;;;;;;;5018076;28;20281;-68
2023/11/11 06:48:26;;;;;;;5.50;1.80;;;;;;;;;;5022425;28;20210;-69
2023/11/11 06:50:52;;;;;;;5.77;1.67;;;;;;;;;;5017754;28;20230;-68
2023/11/11 06:53:17;;;;;;;7.60;1.60;;;;;;;;;;5019503;28;20548;-68
2023/11/11 06:55:45;;;;;;;3.60;1.43;;;;;;;;;;5027374;28;20179;-68
2023/11/11 06:58:10;;;;;;;3.78;1.50;;;;;;;;;;5012722;28;20202;-68
2023/11/11 07:00:36;;;;;;;11.30;1.80;;;;;;;;;;5021431;28;20201;-68
2023/11/11 07:03:02;;;;;;;7.63;1.50;;;;;;;;;;5018481;28;20610;-69
2023/11/11 07:05:28;;;;;;;3.43;1.20;;;;;;;;;;5041605;28;20213;-68
2023/11/11 07:07:53;;;;;;;5.37;1.57;;;;;;;;;;5023645;28;20595;-67
2023/11/11 07:10:21;;;;;;;5.73;1.40;;;;;;;;;;5021222;28;20247;-67
2023/11/11 07:12:47;;;;;;;5.30;1.20;;;;;;;;;;5017238;28;20211;-67
2023/11/11 07:15:13;;;;;;;4.38;1.33;;;;;;;;;;5027948;28;20209;-68
2023/11/11 07:17:42;;;;;;;6.47;1.30;;;;;;;;;;5017542;28;20223;-68
2023/11/11 07:20:19;;;;;;;3.35;1.65;;;;;;;;;;5027778;28;20185;-68
2023/11/11 07:22:45;;;;;;;6.78;1.50;;;;;;;;;;4327026;28;10000790;-68
2023/11/11 07:25:11;;;;;;;6.87;1.30;;;;;;;;;;5027812;28;20244;-68
2023/11/11 07:27:36;;;;;;;5.30;1.47;;;;;;;;;;5024913;28;20186;-68
2023/11/11 07:30:04;;;;;;;4.38;1.13;;;;;;;;;;5022794;28;20681;-68
2023/11/11 07:32:30;;;;;;;4.20;1.40;;;;;;;;;;5011766;28;20235;-68
2023/11/11 07:34:57;;;;;;;7.40;1.30;;;;;;;;;;5021809;28;20190;-67
2023/11/11 07:37:24;;;;;;;7.05;1.60;;;;;;;;;;5023677;28;20210;-68
2023/11/11 07:39:50;;;;;;;4.43;1.20;;;;;;;;;;5015907;28;20194;-70
2023/11/11 07:42:15;;;;;;;3.90;1.23;;;;;;;;;;5011786;28;20203;-68
2023/11/11 07:44:40;;;;;;;3.35;1.05;;;;;;;;;;5018569;28;20718;-68
2023/11/11 07:47:07;;;;;;;2.15;1.00;;;;;;;;;;5010602;28;20193;-68
2023/11/11 07:49:35;;;;;;;3.30;1.38;;;;;;;;;;5011060;28;20194;-68
2023/11/11 07:52:01;;;;;;;2.72;1.30;;;;;;;;;;5020194;28;20186;-69
2023/11/11 07:54:27;;;;;;;6.47;1.75;;;;;;;;;;5016671;28;20491;-68
2023/11/11 07:56:52;;;;;;;7.85;1.50;;;;;;;;;;5025169;28;20210;-68
2023/11/11 07:59:18;;;;;;;5.85;1.17;;;;;;;;;;5021952;28;20190;-69
2023/11/11 08:01:45;;;;;;;6.40;1.77;;;;;;;;;;5024210;28;20269;-68
2023/11/11 08:04:10;;;;;;;4.83;1.40;;;;;;;;;;5015391;28;20193;-68
2023/11/11 08:06:37;;;;;;;4.65;1.33;;;;;;;;;;5014652;28;20186;-68
2023/11/11 08:09:03;;;;;;;4.65;1.17;;;;;;;;;;5020536;28;20217;-68
2023/11/11 08:11:28;;;;;;;7.78;1.25;;;;;;;;;;5010266;28;20652;-68
2023/11/11 08:13:54;;;;;;;6.90;1.98;;;;;;;;;;5014813;28;20273;-68
2023/11/11 08:16:19;;;;;;;5.32;1.40;;;;;;;;;;5020588;28;20620;-68
2023/11/11 08:18:45;;;;;;;7.75;1.70;;;;;;;;;;5027532;28;20197;-68
2023/11/11 08:21:11;;;;;;;3.50;1.35;;;;;;;;;;5023316;28;20200;-68
2023/11/11 08:23:37;;;;;;;6.70;1.50;;;;;;;;;;5012845;28;20318;-68
2023/11/11 08:26:03;;;;;;;6.13;1.63;;;;;;;;;;5025633;28;20202;-68
2023/11/11 08:28:28;;;;;;;4.63;1.00;;;;;;;;;;5019314;28;20186;-67
2023/11/11 08:30:54;;;;;;;4.15;1.00;;;;;;;;;;5030903;28;20186;-67
2023/11/11 08:33:19;;;;;;;4.57;1.35;;;;;;;;;;5017178;28;20237;-67
2023/11/11 08:35:45;;;;;;;2.83;1.00;;;;;;;;;;5029012;28;20475;-68
2023/11/11 08:38:10;;;;;;;6.50;1.48;;;;;;;;;;5012941;28;20520;-68
2023/11/11 08:40:36;;;;;;;6.22;1.00;;;;;;;;;;5022810;28;20289;-70
2023/11/11 08:43:01;;;;;;;4.10;1.00;;;;;;;;;;5029460;28;20697;-71
2023/11/11 08:45:27;;;;;;;3.30;1.20;;;;;;;;;;5025606;28;20197;-71
2023/11/11 08:47:53;;;;;;;3.33;0.80;;;;;;;;;;5018668;28;20298;-71
2023/11/11 08:50:19;;;;;;;1.63;1.00;;;;;;;;;;5043125;28;20194;-71
2023/11/11 08:52:45;;;;;;;3.53;1.17;;;;;;;;;;5017146;28;20632;-70
2023/11/11 08:55:11;;;;;;;4.00;0.80;;;;;;;;;;5016355;28;20265;-70
2023/11/11 08:57:37;;;;;;;4.35;1.02;;;;;;;;;;5032458;28;20275;-70
2023/11/11 09:00:12;;;;;;;3.67;1.00;;;;;;;;;;5023807;28;20223;-69
2023/11/11 09:02:38;;;;;;;4.82;1.48;;;;;;;;;;5017772;28;20194;-70
2023/11/11 09:05:05;;;;;;;3.83;1.00;;;;;;;;;;5024788;28;20186;-70
2023/11/11 09:07:31;;;;;;;4.10;1.35;;;;;;;;;;5023862;28;20732;-69
2023/11/11 09:09:57;;;;;;;5.22;1.42;;;;;;;;;;5023145;28;20276;-69
2023/11/11 09:12:23;;;;;;;3.17;0.95;;;;;;;;;;5024239;28;20198;-68
2023/11/11 09:14:48;;;;;;;4.10;1.48;;;;;;;;;;5022947;28;20236;-68
2023/11/11 09:17:14;;;;;;;2.75;1.15;;;;;;;;;;5023593;28;20240;-70
2023/11/11 09:19:39;;;;;;;5.93;1.55;;;;;;;;;;5025295;28;20300;-70
2023/11/11 09:22:05;;;;;;;6.00;1.13;;;;;;;;;;5024039;28;20207;-69
2023/11/11 09:24:30;;;;;;;3.63;1.00;;;;;;;;;;5023529;28;20658;-69
2023/11/11 09:26:56;;;;;;;4.30;1.05;;;;;;;;;;5021234;28;20538;-69
2023/11/11 09:29:22;;;;;;;9.45;2.95;;;;;;;;;;5024512;28;20237;-69
2023/11/11 09:31:47;;;;;;;4.22;1.95;;;;;;;;;;5022638;28;20198;-70
2023/11/11 09:34:12;;;;;;;3.85;1.75;;;;;;;;;;5020500;28;20197;-69
2023/11/11 09:36:41;;;;;;;4.50;2.00;;;;;;;;;;5020545;28;20194;-69
2023/11/11 09:39:08;;;;;;;4.70;1.40;;;;;;;;;;5023723;28;20204;-68
2023/11/11 09:41:34;;;;;;;3.47;1.60;;;;;;;;;;5023664;28;20212;-69
2023/11/11 09:44:00;;;;;;;4.22;2.38;;;;;;;;;;5023247;28;20206;-69
2023/11/11 09:46:33;;;;;;;3.90;1.45;;;;;;;;;;5023182;28;20599;-68
2023/11/11 09:48:59;;;;;;;7.15;3.60;;;;;;;;;;5023722;28;20296;-67
2023/11/11 09:51:26;;;;;;;4.65;1.63;;;;;;;;;;5023345;28;20249;-68
2023/11/11 09:53:54;;;;;;;5.20;1.40;;;;;;;;;;5022882;28;20202;-69
2023/11/11 09:56:21;;;;;;;2.92;1.45;;;;;;;;;;5021089;28;20202;-69
2023/11/11 09:58:48;;;;;;;9.60;1.30;;;;;;;;;;5023623;28;20213;-69
2023/11/11 10:01:14;;;;;;;4.75;1.73;;;;;;;;;;5021813;28;20216;-69
2023/11/11 10:03:40;;;;;;;3.45;1.85;;;;;;;;;;5024344;28;20186;-70
2023/11/11 10:06:06;;;;;;;5.75;1.70;;;;;;;;;;5021587;28;20206;-70
2023/11/11 10:08:32;;;;;;;9.65;2.60;;;;;;;;;;5021787;28;20218;-70
2023/11/11 10:10:57;;;;;;;7.00;2.58;;;;;;;;;;5022915;28;20221;-69
2023/11/11 10:13:23;;;;;;;5.88;2.63;;;;;;;;;;5030146;28;20185;-69
2023/11/11 10:15:49;;;;;;;3.95;2.35;;;;;;;;;;5019973;28;20571;-69
2023/11/11 10:18:14;;;;;;;4.75;1.80;;;;;;;;;;5027411;28;20226;-68
2023/11/11 10:20:46;;;;;;;5.85;3.28;;;;;;;;;;5031893;28;20708;-69
2023/11/11 10:23:17;;;;;;;4.32;2.28;;;;;;;;;;5021362;28;20205;-69
2023/11/11 10:25:44;;;;;;;3.90;1.60;;;;;;;;;;5025118;28;20182;-68
2023/11/11 10:28:16;;;;;;;6.10;1.40;;;;;;;;;;5024641;28;20189;-68
2023/11/11 10:30:42;;;;;;;3.63;1.38;;;;;;;;;;5028210;28;20258;-67
2023/11/11 10:33:10;;;;;;;2.08;1.30;;;;;;;;;;5022802;28;20601;-69
2023/11/11 10:35:36;;;;;;;3.67;1.50;;;;;;;;;;5016939;28;20303;-68
2023/11/11 10:38:01;;;;;;;3.03;1.33;;;;;;;;;;5028129;28;20633;-68
2023/11/11 10:40:26;;;;;;;4.05;1.52;;;;;;;;;;5023920;28;20553;-68
2023/11/11 10:42:52;;;;;;;4.28;1.50;;;;;;;;;;5025413;28;20190;-68
2023/11/11 10:45:17;;;;;;;7.10;1.45;;;;;;;;;;5029036;28;20218;-68
2023/11/11 10:47:44;;;;;;;3.67;1.77;;;;;;;;;;5023249;28;20179;-68
2023/11/11 10:50:11;;;;;;;6.90;1.83;;;;;;;;;;5025727;28;20196;-68
2023/11/11 10:52:38;;;;;;;7.72;1.42;;;;;;;;;;5018572;28;20201;-69
2023/11/11 10:55:06;;;;;;;6.25;2.33;;;;;;;;;;5023692;28;20194;-68
2023/11/11 10:57:32;;;;;;;6.40;1.10;;;;;;;;;;5027798;28;20352;-68
2023/11/11 10:59:59;;;;;;;4.40;1.20;;;;;;;;;;5020380;28;20198;-68
2023/11/11 11:02:25;;;;;;;5.15;1.35;;;;;;;;;;5018757;28;20194;-68
2023/11/11 11:04:59;;;;;;;3.85;0.90;;;;;;;;;;5028215;28;20604;-67
2023/11/11 11:07:31;;;;;;;4.10;1.30;;;;;;;;;;5029668;28;20713;-67
2023/11/11 11:10:08;;;;;;;2.90;0.90;;;;;;;;;;5021409;28;20582;-67
2023/11/11 11:12:57;;;;;;;3.65;1.10;;;;;;;;;;5023324;28;20186;-67
2023/11/11 11:15:24;;;;;;;3.40;0.95;;;;;;;;;;5029507;28;20217;-68
2023/11/11 11:17:51;;;;;;;2.90;0.77;;;;;;;;;;5027090;28;20222;-67
2023/11/11 11:20:24;;;;;;;2.83;0.80;;;;;;;;;;5025242;28;20185;-67
2023/11/11 11:22:57;;;;;;;5.60;1.38;;;;;;;;;;5022137;28;20445;-67
2023/11/11 11:25:44;;;;;;;2.42;0.80;;;;;;;;;;5027693;28;20419;-68
2023/11/11 11:28:09;;;;;;;5.70;1.00;;;;;;;;;;5012481;28;20194;-67
2023/11/11 11:30:55;;;;;;;3.53;1.20;;;;;;;;;;5020492;28;20194;-67
2023/11/11 11:33:26;;;;;;;3.38;1.90;;;;;;;;;;5027123;28;20579;-67
2023/11/11 11:35:53;;;;;;;4.72;1.98;;;;;;;;;;5031251;28;20243;-67
2023/11/11 11:38:31;;;;;;;4.93;2.05;;;;;;;;;;5027622;28;20311;-67
2023/11/11 11:41:07;;;;;;;6.07;1.52;;;;;;;;;;5040823;28;20263;-67
2023/11/11 11:43:34;;;;;;;4.18;1.30;;;;;;;;;;5015455;28;20541;-67
2023/11/11 11:46:03;;;;;;;5.50;1.02;;;;;;;;;;5011906;28;20267;-67
2023/11/11 11:48:35;;;;;;;2.97;0.98;;;;;;;;;;5025220;28;20335;-67
2023/11/11 11:51:14;;;;;;;2.72;1.20;;;;;;;;;;5020509;28;20520;-67
2023/11/11 11:53:41;;;;;;;5.07;0.80;;;;;;;;;;5028631;28;20749;-68
2023/11/11 11:56:07;;;;;;;6.13;0.80;;;;;;;;;;5028439;28;20641;-68
2023/11/11 11:58:50;;;;;;;2.60;0.88;;;;;;;;;;5038549;28;20220;-67
2023/11/11 12:01:23;;;;;;;2.95;0.82;;;;;;;;;;5021394;28;20194;-67
2023/11/11 12:03:50;;;;;;;4.05;0.90;;;;;;;;;;5025525;28;20190;-67
2023/11/11 12:06:15;;;;;;;4.25;0.90;;;;;;;;;;5039050;28;20275;-68
2023/11/11 12:08:49;;;;;;;3.55;0.68;;;;;;;;;;5027776;28;20182;-68
2023/11/11 12:11:24;;;;;;;6.45;0.77;;;;;;;;;;5020173;28;20425;-67
2023/11/11 12:13:50;;;;;;;6.43;1.00;;;;;;;;;;5031031;28;20555;-69
2023/11/11 12:16:17;;;;;;;3.75;0.77;;;;;;;;;;5023924;28;20210;-68
2023/11/11 12:18:42;;;;;;;3.17;0.60;;;;;;;;;;5029692;28;20289;-67
2023/11/11 12:21:07;;;;;;;5.53;0.80;;;;;;;;;;5030043;28;20265;-68
2023/11/11 12:23:33;;;;;;;5.65;1.02;;;;;;;;;;5028942;28;20213;-67
2023/11/11 12:25:59;;;;;;;1.90;0.90;;;;;;;;;;5028850;28;20309;-67
2023/11/11 12:28:27;;;;;;;5.35;1.83;;;;;;;;;;5024248;28;20187;-68
2023/11/11 12:31:03;;;;;;;3.78;1.00;;;;;;;;;;5030956;28;20230;-68
2023/11/11 12:33:29;;;;;;;3.40;0.93;;;;;;;;;;5021378;28;20265;-68
2023/11/11 12:35:55;;;;;;;6.63;0.90;;;;;;;;;;5027713;28;20190;-67
2023/11/11 12:38:23;;;;;;;3.60;0.88;;;;;;;;;;5017414;28;20304;-67
2023/11/11 12:40:49;;;;;;;2.47;1.50;;;;;;;;;;5031061;28;20273;-67
2023/11/11 12:43:18;;;;;;;3.20;1.00;;;;;;;;;;5027827;28;20265;-67
2023/11/11 12:45:47;;;;;;;3.97;1.05;;;;;;;;;;5030575;28;20186;-67
2023/11/11 12:48:16;;;;;;;2.65;0.95;;;;;;;;;;5025087;28;20680;-67
2023/11/11 12:50:42;;;;;;;2.40;0.85;;;;;;;;;;5029906;28;20249;-66
2023/11/11 12:53:13;;;;;;;5.55;1.30;;;;;;;;;;5017297;28;20186;-69
2023/11/11 12:55:39;;;;;;;7.88;1.60;;;;;;;;;;5025773;28;20186;-68
2023/11/11 12:58:26;;;;;;;4.25;1.58;;;;;;;;;;5029305;28;20221;-68
2023/11/11 13:00:57;;;;;;;8.55;1.27;;;;;;;;;;5023132;28;20197;-68
2023/11/11 13:03:29;;;;;;;9.85;1.98;;;;;;;;;;5016694;28;20197;-68
2023/11/11 13:06:00;;;;;;;4.68;0.90;;;;;;;;;;5027924;28;20270;-68
2023/11/11 13:08:27;;;;;;;5.45;1.05;;;;;;;;;;5014048;28;20191;-68
2023/11/11 13:11:00;;;;;;;3.80;0.90;;;;;;;;;;5014314;28;20500;-68
2023/11/11 13:13:29;;;;;;;6.80;1.10;;;;;;;;;;5028853;28;20174;-68
2023/11/11 13:15:55;;;;;;;5.60;0.82;;;;;;;;;;5029588;28;20218;-68
2023/11/11 13:18:22;;;;;;;5.18;1.10;;;;;;;;;;5014174;28;20611;-68
2023/11/11 13:20:52;;;;;;;6.32;1.20;;;;;;;;;;5030093;28;20209;-68
2023/11/11 13:23:19;;;;;;;4.45;1.30;;;;;;;;;;5029008;28;20522;-68
2023/11/11 13:25:50;;;;;;;6.90;1.45;;;;;;;;;;5019177;28;20273;-67
2023/11/11 13:28:23;;;;;;;5.05;1.80;;;;;;;;;;5014161;28;20191;-67
2023/11/11 13:30:49;;;;;;;2.92;1.25;;;;;;;;;;5019886;28;20284;-67
2023/11/11 13:33:15;;;;;;;5.15;1.27;;;;;;;;;;5026704;28;21557;-67
2023/11/11 13:35:50;;;;;;;5.53;1.92;;;;;;;;;;5026578;28;20213;-68
2023/11/11 13:38:19;;;;;;;5.20;1.67;;;;;;;;;;5022285;28;20206;-67
2023/11/11 13:40:47;;;;;;;5.10;1.60;;;;;;;;;;5019379;28;20241;-68
2023/11/11 13:43:14;;;;;;;4.28;1.98;;;;;;;;;;5025341;28;20223;-67
2023/11/11 13:45:40;;;;;;;5.13;1.77;;;;;;;;;;5018882;28;20622;-68
2023/11/11 13:48:07;;;;;;;7.68;1.90;;;;;;;;;;5023821;28;20214;-68
2023/11/11 13:50:33;;;;;;;5.75;1.50;;;;;;;;;;5022104;28;20186;-68
2023/11/11 13:52:59;;;;;;;3.72;1.45;;;;;;;;;;5028531;28;20193;-69
2023/11/11 13:55:25;;;;;;;5.05;2.08;;;;;;;;;;5026802;28;20198;-68
2023/11/11 13:57:50;;;;;;;7.95;2.30;;;;;;;;;;5025267;28;20210;-68
2023/11/11 14:00:28;;;;;;;8.13;2.40;;;;;;;;;;5024994;28;20218;-68
2023/11/11 14:03:02;;;;;;;6.53;1.80;;;;;;;;;;5025903;28;20263;-67
2023/11/11 14:05:28;;;;;;;7.50;3.03;;;;;;;;;;5022889;28;20677;-67
2023/11/11 14:07:54;;;;;;;3.53;1.73;;;;;;;;;;5017580;28;20191;-67
2023/11/11 14:10:23;;;;;;;3.90;2.40;;;;;;;;;;5018612;28;20221;-67
2023/11/11 14:12:50;;;;;;;4.82;1.65;;;;;;;;;;5019965;28;20545;-69
2023/11/11 14:15:18;;;;;;;7.85;1.77;;;;;;;;;;5027034;28;20210;-68
2023/11/11 14:17:47;;;;;;;5.05;1.55;;;;;;;;;;5026277;28;20261;-68
2023/11/11 14:20:14;;;;;;;5.45;1.50;;;;;;;;;;5032829;28;20737;-68
2023/11/11 14:22:41;;;;;;;1.98;1.08;;;;;;;;;;5021197;28;20275;-67
2023/11/11 14:25:09;;;;;;;4.72;1.50;;;;;;;;;;5027514;28;20186;-67
2023/11/11 14:27:44;;;;;;;7.47;1.40;;;;;;;;;;5023143;28;20178;-67
2023/11/11 14:30:12;;;;;;;5.13;1.10;;;;;;;;;;5025608;28;20684;-67
2023/11/11 14:32:42;;;;;;;2.78;0.90;;;;;;;;;;5030355;28;20185;-67
2023/11/11 14:35:16;;;;;;;2.10;0.80;;;;;;;;;;5022444;28;20251;-67